sensor_id;sensor_type;location;lat;lon;timestamp;P1;durP1;ratioP1;P2;durP2;ratioP2
22774;SDS011;11554;51.106;3.684;2022-07-23T00:00:00;6.50;;;4.40;;
22774;SDS011;11554;51.106;3.684;2022-07-23T00:05:00;6.50;;;4.40;;
22774;SDS011;11554;51.106;3.684;2022-07-23T00:10:00;6.80;;;4.30;;
22774;SDS011;11554;51.106;3.684;2022-07-23T00:15:00;6.80;;;4.30;;
22774;SDS011;11554;51.106;3.684;2022-07-23T00:20:00;8.80;;;5.20;;
22774;SDS011;11554;51.106;3.684;2022-07-23T00:25:00;8.80;;;5.20;;
22774;SDS011;11554;51.106;3.684;2022-07-23T00:30:00;5.40;;;4.20;;
22774;SDS011;11554;51.106;3.684;2022-07-23T00:35:00;5.40;;;4.20;;
22774;SDS011;11554;51.106;3.684;2022-07-23T00:40:00;7.90;;;5.40;;
22774;SDS011;11554;51.106;3.684;2022-07-23T00:45:00;7.90;;;5.40;;
22774;SDS011;11554;51.106;3.684;2022-07-23T00:50:00;8.90;;;5.30;;
22774;SDS011;11554;51.106;3.684;2022-07-23T00:55:00;8.90;;;5.30;;
22774;SDS011;11554;51.106;3.684;2022-07-23T01:00:00;7.50;;;5.60;;
22774;SDS011;11554;51.106;3.684;2022-07-23T01:05:00;7.50;;;5.60;;
22774;SDS011;11554;51.106;3.684;2022-07-23T01:10:01;7.10;;;5.50;;
22774;SDS011;11554;51.106;3.684;2022-07-23T01:15:00;7.10;;;5.50;;
22774;SDS011;11554;51.106;3.684;2022-07-23T01:20:00;9.00;;;6.00;;
22774;SDS011;11554;51.106;3.684;2022-07-23T01:25:00;9.00;;;6.00;;
22774;SDS011;11554;51.106;3.684;2022-07-23T01:30:02;6.90;;;5.10;;
22774;SDS011;11554;51.106;3.684;2022-07-23T01:35:00;6.90;;;5.10;;
22774;SDS011;11554;51.106;3.684;2022-07-23T01:40:00;8.10;;;6.00;;
22774;SDS011;11554;51.106;3.684;2022-07-23T01:45:00;8.10;;;6.00;;
22774;SDS011;11554;51.106;3.684;2022-07-23T01:50:00;7.50;;;6.00;;
22774;SDS011;11554;51.106;3.684;2022-07-23T01:55:00;7.50;;;6.00;;
22774;SDS011;11554;51.106;3.684;2022-07-23T02:00:00;5.70;;;4.60;;
22774;SDS011;11554;51.106;3.684;2022-07-23T02:05:00;5.70;;;4.60;;
22774;SDS011;11554;51.106;3.684;2022-07-23T02:10:00;8.20;;;5.90;;
22774;SDS011;11554;51.106;3.684;2022-07-23T02:15:00;8.20;;;5.90;;
22774;SDS011;11554;51.106;3.684;2022-07-23T02:20:00;7.20;;;5.60;;
22774;SDS011;11554;51.106;3.684;2022-07-23T02:25:00;7.20;;;5.60;;
22774;SDS011;11554;51.106;3.684;2022-07-23T02:30:00;6.00;;;4.80;;
22774;SDS011;11554;51.106;3.684;2022-07-23T02:35:00;6.00;;;4.80;;
22774;SDS011;11554;51.106;3.684;2022-07-23T02:40:00;8.50;;;5.70;;
22774;SDS011;11554;51.106;3.684;2022-07-23T02:45:00;8.50;;;5.70;;
22774;SDS011;11554;51.106;3.684;2022-07-23T02:50:00;8.80;;;6.00;;
22774;SDS011;11554;51.106;3.684;2022-07-23T02:55:00;8.80;;;6.00;;
22774;SDS011;11554;51.106;3.684;2022-07-23T03:00:00;8.40;;;6.00;;
22774;SDS011;11554;51.106;3.684;2022-07-23T03:05:00;8.40;;;6.00;;
22774;SDS011;11554;51.106;3.684;2022-07-23T03:10:00;7.10;;;5.60;;
22774;SDS011;11554;51.106;3.684;2022-07-23T03:15:00;7.10;;;5.60;;
22774;SDS011;11554;51.106;3.684;2022-07-23T03:20:01;9.00;;;6.00;;
22774;SDS011;11554;51.106;3.684;2022-07-23T03:25:00;9.00;;;6.00;;
22774;SDS011;11554;51.106;3.684;2022-07-23T03:30:00;10.60;;;6.60;;
22774;SDS011;11554;51.106;3.684;2022-07-23T03:35:00;10.60;;;6.60;;
22774;SDS011;11554;51.106;3.684;2022-07-23T03:40:00;9.00;;;6.60;;
22774;SDS011;11554;51.106;3.684;2022-07-23T03:45:00;9.00;;;6.60;;
22774;SDS011;11554;51.106;3.684;2022-07-23T03:50:00;8.90;;;6.50;;
22774;SDS011;11554;51.106;3.684;2022-07-23T03:55:00;8.90;;;6.50;;
22774;SDS011;11554;51.106;3.684;2022-07-23T04:00:00;8.60;;;6.50;;
22774;SDS011;11554;51.106;3.684;2022-07-23T04:05:00;8.60;;;6.50;;
22774;SDS011;11554;51.106;3.684;2022-07-23T04:10:00;9.00;;;6.20;;
22774;SDS011;11554;51.106;3.684;2022-07-23T04:15:00;9.00;;;6.20;;
22774;SDS011;11554;51.106;3.684;2022-07-23T04:20:00;8.70;;;6.30;;
22774;SDS011;11554;51.106;3.684;2022-07-23T04:25:00;8.70;;;6.30;;
22774;SDS011;11554;51.106;3.684;2022-07-23T04:30:01;9.70;;;6.70;;
22774;SDS011;11554;51.106;3.684;2022-07-23T04:35:00;9.70;;;6.70;;
22774;SDS011;11554;51.106;3.684;2022-07-23T04:40:00;11.00;;;7.00;;
22774;SDS011;11554;51.106;3.684;2022-07-23T04:45:00;11.00;;;7.00;;
22774;SDS011;11554;51.106;3.684;2022-07-23T04:50:00;11.50;;;8.00;;
22774;SDS011;11554;51.106;3.684;2022-07-23T04:55:00;11.50;;;8.00;;
22774;SDS011;11554;51.106;3.684;2022-07-23T05:00:00;9.60;;;7.90;;
22774;SDS011;11554;51.106;3.684;2022-07-23T05:05:00;9.60;;;7.90;;
22774;SDS011;11554;51.106;3.684;2022-07-23T05:10:00;9.20;;;7.90;;
22774;SDS011;11554;51.106;3.684;2022-07-23T05:15:00;9.20;;;7.90;;
22774;SDS011;11554;51.106;3.684;2022-07-23T05:20:01;9.70;;;8.20;;
22774;SDS011;11554;51.106;3.684;2022-07-23T05:25:00;9.70;;;8.20;;
22774;SDS011;11554;51.106;3.684;2022-07-23T05:30:00;10.40;;;8.10;;
22774;SDS011;11554;51.106;3.684;2022-07-23T05:35:00;10.40;;;8.10;;
22774;SDS011;11554;51.106;3.684;2022-07-23T05:40:00;12.60;;;8.80;;
22774;SDS011;11554;51.106;3.684;2022-07-23T05:45:00;12.60;;;8.80;;
22774;SDS011;11554;51.106;3.684;2022-07-23T05:50:00;13.40;;;9.40;;
22774;SDS011;11554;51.106;3.684;2022-07-23T05:55:00;13.40;;;9.40;;
22774;SDS011;11554;51.106;3.684;2022-07-23T06:00:00;13.30;;;9.30;;
22774;SDS011;11554;51.106;3.684;2022-07-23T06:05:00;13.30;;;9.30;;
22774;SDS011;11554;51.106;3.684;2022-07-23T06:10:00;11.30;;;9.00;;
22774;SDS011;11554;51.106;3.684;2022-07-23T06:15:00;11.30;;;9.00;;
22774;SDS011;11554;51.106;3.684;2022-07-23T06:20:00;13.20;;;8.70;;
22774;SDS011;11554;51.106;3.684;2022-07-23T06:25:00;13.20;;;8.70;;
22774;SDS011;11554;51.106;3.684;2022-07-23T06:30:00;9.30;;;7.90;;
22774;SDS011;11554;51.106;3.684;2022-07-23T06:35:00;9.30;;;7.90;;
22774;SDS011;11554;51.106;3.684;2022-07-23T06:40:00;12.70;;;8.40;;
22774;SDS011;11554;51.106;3.684;2022-07-23T06:45:00;12.70;;;8.40;;
22774;SDS011;11554;51.106;3.684;2022-07-23T06:50:00;11.40;;;7.50;;
22774;SDS011;11554;51.106;3.684;2022-07-23T06:55:00;11.40;;;7.50;;
22774;SDS011;11554;51.106;3.684;2022-07-23T07:00:00;11.10;;;7.90;;
22774;SDS011;11554;51.106;3.684;2022-07-23T07:05:01;11.10;;;7.90;;
22774;SDS011;11554;51.106;3.684;2022-07-23T07:10:00;12.80;;;8.60;;
22774;SDS011;11554;51.106;3.684;2022-07-23T07:15:00;12.80;;;8.60;;
22774;SDS011;11554;51.106;3.684;2022-07-23T07:20:00;13.80;;;8.40;;
22774;SDS011;11554;51.106;3.684;2022-07-23T07:25:00;13.80;;;8.40;;
22774;SDS011;11554;51.106;3.684;2022-07-23T07:30:00;11.50;;;8.60;;
22774;SDS011;11554;51.106;3.684;2022-07-23T07:35:00;11.50;;;8.60;;
22774;SDS011;11554;51.106;3.684;2022-07-23T07:40:00;10.30;;;7.20;;
22774;SDS011;11554;51.106;3.684;2022-07-23T07:45:01;10.30;;;7.20;;
22774;SDS011;11554;51.106;3.684;2022-07-23T07:50:00;11.50;;;7.00;;
22774;SDS011;11554;51.106;3.684;2022-07-23T07:55:00;11.50;;;7.00;;
22774;SDS011;11554;51.106;3.684;2022-07-23T08:00:00;13.40;;;7.00;;
22774;SDS011;11554;51.106;3.684;2022-07-23T08:05:00;13.40;;;7.00;;
22774;SDS011;11554;51.106;3.684;2022-07-23T08:10:00;11.20;;;7.30;;
22774;SDS011;11554;51.106;3.684;2022-07-23T08:15:00;11.20;;;7.30;;
22774;SDS011;11554;51.106;3.684;2022-07-23T08:20:00;9.10;;;7.00;;
22774;SDS011;11554;51.106;3.684;2022-07-23T08:25:00;9.10;;;7.00;;
22774;SDS011;11554;51.106;3.684;2022-07-23T08:30:00;9.90;;;6.90;;
22774;SDS011;11554;51.106;3.684;2022-07-23T08:35:00;9.90;;;6.90;;
22774;SDS011;11554;51.106;3.684;2022-07-23T08:40:00;8.40;;;6.40;;
22774;SDS011;11554;51.106;3.684;2022-07-23T08:45:00;8.40;;;6.40;;
22774;SDS011;11554;51.106;3.684;2022-07-23T08:50:00;11.20;;;7.20;;
22774;SDS011;11554;51.106;3.684;2022-07-23T08:55:00;11.20;;;7.20;;
22774;SDS011;11554;51.106;3.684;2022-07-23T09:00:00;9.20;;;5.50;;
22774;SDS011;11554;51.106;3.684;2022-07-23T09:05:00;9.20;;;5.50;;
22774;SDS011;11554;51.106;3.684;2022-07-23T09:10:09;8.00;;;5.30;;
22774;SDS011;11554;51.106;3.684;2022-07-23T09:15:04;8.00;;;5.30;;
22774;SDS011;11554;51.106;3.684;2022-07-23T09:20:07;8.30;;;5.40;;
22774;SDS011;11554;51.106;3.684;2022-07-23T09:25:09;8.30;;;5.40;;
22774;SDS011;11554;51.106;3.684;2022-07-23T09:30:00;7.50;;;5.30;;
22774;SDS011;11554;51.106;3.684;2022-07-23T09:35:00;7.50;;;5.30;;
22774;SDS011;11554;51.106;3.684;2022-07-23T09:40:04;7.00;;;4.80;;
22774;SDS011;11554;51.106;3.684;2022-07-23T09:45:01;7.00;;;4.80;;
22774;SDS011;11554;51.106;3.684;2022-07-23T09:50:02;7.90;;;4.90;;
22774;SDS011;11554;51.106;3.684;2022-07-23T09:55:01;7.90;;;4.90;;
22774;SDS011;11554;51.106;3.684;2022-07-23T10:00:03;7.30;;;5.10;;
22774;SDS011;11554;51.106;3.684;2022-07-23T10:05:01;7.30;;;5.10;;
22774;SDS011;11554;51.106;3.684;2022-07-23T10:10:01;7.50;;;3.80;;
22774;SDS011;11554;51.106;3.684;2022-07-23T10:15:00;7.50;;;3.80;;
22774;SDS011;11554;51.106;3.684;2022-07-23T10:20:00;7.60;;;4.80;;
22774;SDS011;11554;51.106;3.684;2022-07-23T10:25:09;7.60;;;4.80;;
22774;SDS011;11554;51.106;3.684;2022-07-23T10:30:02;7.10;;;4.40;;
22774;SDS011;11554;51.106;3.684;2022-07-23T10:35:09;7.10;;;4.40;;
22774;SDS011;11554;51.106;3.684;2022-07-23T10:40:11;6.60;;;3.90;;
22774;SDS011;11554;51.106;3.684;2022-07-23T10:45:00;6.60;;;3.90;;
22774;SDS011;11554;51.106;3.684;2022-07-23T10:50:16;9.80;;;3.80;;
22774;SDS011;11554;51.106;3.684;2022-07-23T11:00:17;4.50;;;3.20;;
22774;SDS011;11554;51.106;3.684;2022-07-23T11:05:02;4.50;;;3.20;;
22774;SDS011;11554;51.106;3.684;2022-07-23T11:10:00;5.70;;;3.70;;
22774;SDS011;11554;51.106;3.684;2022-07-23T11:15:02;5.70;;;3.70;;
22774;SDS011;11554;51.106;3.684;2022-07-23T11:20:18;6.20;;;4.60;;
22774;SDS011;11554;51.106;3.684;2022-07-23T11:25:00;6.20;;;4.60;;
22774;SDS011;11554;51.106;3.684;2022-07-23T11:30:00;5.60;;;3.80;;
22774;SDS011;11554;51.106;3.684;2022-07-23T11:35:00;5.60;;;3.80;;
22774;SDS011;11554;51.106;3.684;2022-07-23T11:40:01;4.70;;;3.40;;
22774;SDS011;11554;51.106;3.684;2022-07-23T11:45:00;4.70;;;3.40;;
22774;SDS011;11554;51.106;3.684;2022-07-23T11:50:02;6.70;;;3.60;;
22774;SDS011;11554;51.106;3.684;2022-07-23T11:55:02;6.70;;;3.60;;
22774;SDS011;11554;51.106;3.684;2022-07-23T12:00:04;7.40;;;3.80;;
22774;SDS011;11554;51.106;3.684;2022-07-23T12:05:01;7.40;;;3.80;;
22774;SDS011;11554;51.106;3.684;2022-07-23T12:10:02;11.00;;;8.20;;
22774;SDS011;11554;51.106;3.684;2022-07-23T12:15:00;11.00;;;8.20;;
22774;SDS011;11554;51.106;3.684;2022-07-23T12:20:01;6.00;;;3.30;;
22774;SDS011;11554;51.106;3.684;2022-07-23T12:25:02;6.00;;;3.30;;
22774;SDS011;11554;51.106;3.684;2022-07-23T12:30:18;6.00;;;4.20;;
22774;SDS011;11554;51.106;3.684;2022-07-23T12:35:03;6.00;;;4.20;;
22774;SDS011;11554;51.106;3.684;2022-07-23T12:45:06;6.50;;;3.60;;
22774;SDS011;11554;51.106;3.684;2022-07-23T12:50:00;5.00;;;3.10;;
22774;SDS011;11554;51.106;3.684;2022-07-23T12:55:00;5.00;;;3.10;;
22774;SDS011;11554;51.106;3.684;2022-07-23T13:00:07;18.20;;;14.20;;
22774;SDS011;11554;51.106;3.684;2022-07-23T13:05:00;18.20;;;14.20;;
22774;SDS011;11554;51.106;3.684;2022-07-23T13:10:00;6.80;;;3.20;;
22774;SDS011;11554;51.106;3.684;2022-07-23T13:15:00;6.80;;;3.20;;
22774;SDS011;11554;51.106;3.684;2022-07-23T13:20:00;6.20;;;2.80;;
22774;SDS011;11554;51.106;3.684;2022-07-23T13:25:00;6.20;;;2.80;;
22774;SDS011;11554;51.106;3.684;2022-07-23T13:30:00;8.30;;;6.40;;
22774;SDS011;11554;51.106;3.684;2022-07-23T13:35:00;8.30;;;6.40;;
22774;SDS011;11554;51.106;3.684;2022-07-23T13:40:00;6.30;;;4.10;;
22774;SDS011;11554;51.106;3.684;2022-07-23T13:45:00;6.30;;;4.10;;
22774;SDS011;11554;51.106;3.684;2022-07-23T13:50:00;6.20;;;3.70;;
22774;SDS011;11554;51.106;3.684;2022-07-23T13:55:01;6.20;;;3.70;;
22774;SDS011;11554;51.106;3.684;2022-07-23T14:00:00;6.60;;;3.10;;
22774;SDS011;11554;51.106;3.684;2022-07-23T14:05:00;6.60;;;3.10;;
22774;SDS011;11554;51.106;3.684;2022-07-23T14:10:00;4.90;;;3.70;;
22774;SDS011;11554;51.106;3.684;2022-07-23T14:15:01;4.90;;;3.70;;
22774;SDS011;11554;51.106;3.684;2022-07-23T14:20:00;7.90;;;3.30;;
22774;SDS011;11554;51.106;3.684;2022-07-23T14:25:01;7.90;;;3.30;;
22774;SDS011;11554;51.106;3.684;2022-07-23T14:30:00;6.50;;;3.80;;
22774;SDS011;11554;51.106;3.684;2022-07-23T14:35:00;6.50;;;3.80;;
22774;SDS011;11554;51.106;3.684;2022-07-23T14:40:00;4.90;;;3.40;;
22774;SDS011;11554;51.106;3.684;2022-07-23T14:45:01;4.90;;;3.40;;
22774;SDS011;11554;51.106;3.684;2022-07-23T14:50:00;5.90;;;3.50;;
22774;SDS011;11554;51.106;3.684;2022-07-23T14:55:00;5.90;;;3.50;;
22774;SDS011;11554;51.106;3.684;2022-07-23T15:00:00;7.50;;;4.50;;
22774;SDS011;11554;51.106;3.684;2022-07-23T15:05:00;7.50;;;4.50;;
22774;SDS011;11554;51.106;3.684;2022-07-23T15:10:00;6.40;;;4.40;;
22774;SDS011;11554;51.106;3.684;2022-07-23T15:15:00;6.40;;;4.40;;
22774;SDS011;11554;51.106;3.684;2022-07-23T15:20:01;6.90;;;5.10;;
22774;SDS011;11554;51.106;3.684;2022-07-23T15:25:00;6.90;;;5.10;;
22774;SDS011;11554;51.106;3.684;2022-07-23T15:30:00;6.10;;;4.70;;
22774;SDS011;11554;51.106;3.684;2022-07-23T15:35:00;6.10;;;4.70;;
22774;SDS011;11554;51.106;3.684;2022-07-23T15:40:00;7.60;;;5.30;;
22774;SDS011;11554;51.106;3.684;2022-07-23T15:45:00;7.60;;;5.30;;
22774;SDS011;11554;51.106;3.684;2022-07-23T15:50:00;6.70;;;5.10;;
22774;SDS011;11554;51.106;3.684;2022-07-23T15:55:00;6.70;;;5.10;;
22774;SDS011;11554;51.106;3.684;2022-07-23T16:00:00;7.80;;;5.10;;
22774;SDS011;11554;51.106;3.684;2022-07-23T16:05:00;7.80;;;5.10;;
22774;SDS011;11554;51.106;3.684;2022-07-23T16:10:00;8.10;;;5.60;;
22774;SDS011;11554;51.106;3.684;2022-07-23T16:15:00;8.10;;;5.60;;
22774;SDS011;11554;51.106;3.684;2022-07-23T16:20:00;8.20;;;7.00;;
22774;SDS011;11554;51.106;3.684;2022-07-23T16:25:00;8.20;;;7.00;;
22774;SDS011;11554;51.106;3.684;2022-07-23T16:30:01;8.50;;;6.90;;
22774;SDS011;11554;51.106;3.684;2022-07-23T16:35:00;8.50;;;6.90;;
22774;SDS011;11554;51.106;3.684;2022-07-23T16:40:00;10.10;;;7.40;;
22774;SDS011;11554;51.106;3.684;2022-07-23T16:45:00;10.10;;;7.40;;
22774;SDS011;11554;51.106;3.684;2022-07-23T16:50:00;14.00;;;9.70;;
22774;SDS011;11554;51.106;3.684;2022-07-23T16:55:00;14.00;;;9.70;;
22774;SDS011;11554;51.106;3.684;2022-07-23T17:00:00;19.10;;;16.20;;
22774;SDS011;11554;51.106;3.684;2022-07-23T17:05:00;19.10;;;16.20;;
22774;SDS011;11554;51.106;3.684;2022-07-23T17:10:00;18.10;;;16.20;;
22774;SDS011;11554;51.106;3.684;2022-07-23T17:15:00;18.10;;;16.20;;
22774;SDS011;11554;51.106;3.684;2022-07-23T17:20:00;10.30;;;7.20;;
22774;SDS011;11554;51.106;3.684;2022-07-23T17:25:00;10.30;;;7.20;;
22774;SDS011;11554;51.106;3.684;2022-07-23T17:30:00;10.40;;;7.30;;
22774;SDS011;11554;51.106;3.684;2022-07-23T17:35:00;10.40;;;7.30;;
22774;SDS011;11554;51.106;3.684;2022-07-23T17:40:00;14.60;;;9.30;;
22774;SDS011;11554;51.106;3.684;2022-07-23T17:45:00;14.60;;;9.30;;
22774;SDS011;11554;51.106;3.684;2022-07-23T17:50:00;13.20;;;8.80;;
22774;SDS011;11554;51.106;3.684;2022-07-23T17:55:00;13.20;;;8.80;;
22774;SDS011;11554;51.106;3.684;2022-07-23T18:00:00;13.10;;;9.50;;
22774;SDS011;11554;51.106;3.684;2022-07-23T18:05:00;13.10;;;9.50;;
22774;SDS011;11554;51.106;3.684;2022-07-23T18:10:00;17.20;;;13.10;;
22774;SDS011;11554;51.106;3.684;2022-07-23T18:15:00;17.20;;;13.10;;
22774;SDS011;11554;51.106;3.684;2022-07-23T18:20:00;15.70;;;11.90;;
22774;SDS011;11554;51.106;3.684;2022-07-23T18:25:00;15.70;;;11.90;;
22774;SDS011;11554;51.106;3.684;2022-07-23T18:30:00;14.40;;;11.90;;
22774;SDS011;11554;51.106;3.684;2022-07-23T18:35:00;14.40;;;11.90;;
22774;SDS011;11554;51.106;3.684;2022-07-23T18:40:00;15.50;;;12.00;;
22774;SDS011;11554;51.106;3.684;2022-07-23T18:45:00;15.50;;;12.00;;
22774;SDS011;11554;51.106;3.684;2022-07-23T18:50:00;16.70;;;11.90;;
22774;SDS011;11554;51.106;3.684;2022-07-23T18:55:02;16.70;;;11.90;;
22774;SDS011;11554;51.106;3.684;2022-07-23T19:00:00;18.60;;;14.00;;
22774;SDS011;11554;51.106;3.684;2022-07-23T19:05:00;18.60;;;14.00;;
22774;SDS011;11554;51.106;3.684;2022-07-23T19:10:00;17.70;;;13.70;;
22774;SDS011;11554;51.106;3.684;2022-07-23T19:15:00;17.70;;;13.70;;
22774;SDS011;11554;51.106;3.684;2022-07-23T19:20:00;15.90;;;12.80;;
22774;SDS011;11554;51.106;3.684;2022-07-23T19:25:00;15.90;;;12.80;;
22774;SDS011;11554;51.106;3.684;2022-07-23T19:30:00;17.70;;;12.90;;
22774;SDS011;11554;51.106;3.684;2022-07-23T19:35:00;17.70;;;12.90;;
22774;SDS011;11554;51.106;3.684;2022-07-23T19:40:00;82.90;;;61.60;;
22774;SDS011;11554;51.106;3.684;2022-07-23T19:45:01;82.90;;;61.60;;
22774;SDS011;11554;51.106;3.684;2022-07-23T19:50:00;28.70;;;24.10;;
22774;SDS011;11554;51.106;3.684;2022-07-23T19:55:00;28.70;;;24.10;;
22774;SDS011;11554;51.106;3.684;2022-07-23T20:00:00;24.10;;;20.70;;
22774;SDS011;11554;51.106;3.684;2022-07-23T20:05:00;24.10;;;20.70;;
22774;SDS011;11554;51.106;3.684;2022-07-23T20:10:00;27.30;;;20.30;;
22774;SDS011;11554;51.106;3.684;2022-07-23T20:15:00;27.30;;;20.30;;
22774;SDS011;11554;51.106;3.684;2022-07-23T20:20:00;25.20;;;17.90;;
22774;SDS011;11554;51.106;3.684;2022-07-23T20:25:00;25.20;;;17.90;;
22774;SDS011;11554;51.106;3.684;2022-07-23T20:30:00;20.90;;;15.40;;
22774;SDS011;11554;51.106;3.684;2022-07-23T20:35:00;20.90;;;15.40;;
22774;SDS011;11554;51.106;3.684;2022-07-23T20:40:00;19.20;;;15.10;;
22774;SDS011;11554;51.106;3.684;2022-07-23T20:45:00;19.20;;;15.10;;
22774;SDS011;11554;51.106;3.684;2022-07-23T20:50:00;21.40;;;16.10;;
22774;SDS011;11554;51.106;3.684;2022-07-23T20:55:00;21.40;;;16.10;;
22774;SDS011;11554;51.106;3.684;2022-07-23T21:00:00;18.70;;;14.40;;
22774;SDS011;11554;51.106;3.684;2022-07-23T21:05:00;18.70;;;14.40;;
22774;SDS011;11554;51.106;3.684;2022-07-23T21:10:00;18.80;;;13.40;;
22774;SDS011;11554;51.106;3.684;2022-07-23T21:15:00;18.80;;;13.40;;
22774;SDS011;11554;51.106;3.684;2022-07-23T21:20:00;16.40;;;11.60;;
22774;SDS011;11554;51.106;3.684;2022-07-23T21:25:00;16.40;;;11.60;;
22774;SDS011;11554;51.106;3.684;2022-07-23T21:30:00;18.40;;;12.00;;
22774;SDS011;11554;51.106;3.684;2022-07-23T21:35:00;18.40;;;12.00;;
22774;SDS011;11554;51.106;3.684;2022-07-23T21:40:00;17.70;;;12.90;;
22774;SDS011;11554;51.106;3.684;2022-07-23T21:45:00;17.70;;;12.90;;
22774;SDS011;11554;51.106;3.684;2022-07-23T21:50:00;17.80;;;12.90;;
22774;SDS011;11554;51.106;3.684;2022-07-23T21:55:00;17.80;;;12.90;;
22774;SDS011;11554;51.106;3.684;2022-07-23T22:00:00;14.60;;;11.40;;
22774;SDS011;11554;51.106;3.684;2022-07-23T22:05:00;14.60;;;11.40;;
22774;SDS011;11554;51.106;3.684;2022-07-23T22:10:00;17.20;;;12.30;;
22774;SDS011;11554;51.106;3.684;2022-07-23T22:15:00;17.20;;;12.30;;
22774;SDS011;11554;51.106;3.684;2022-07-23T22:20:00;16.50;;;12.70;;
22774;SDS011;11554;51.106;3.684;2022-07-23T22:25:00;16.50;;;12.70;;
22774;SDS011;11554;51.106;3.684;2022-07-23T22:30:00;17.60;;;13.20;;
22774;SDS011;11554;51.106;3.684;2022-07-23T22:35:00;17.60;;;13.20;;
22774;SDS011;11554;51.106;3.684;2022-07-23T22:40:00;18.00;;;13.80;;
22774;SDS011;11554;51.106;3.684;2022-07-23T22:45:00;18.00;;;13.80;;
22774;SDS011;11554;51.106;3.684;2022-07-23T22:50:00;16.00;;;13.90;;
22774;SDS011;11554;51.106;3.684;2022-07-23T22:55:00;16.00;;;13.90;;
22774;SDS011;11554;51.106;3.684;2022-07-23T23:00:00;16.00;;;13.90;;
22774;SDS011;11554;51.106;3.684;2022-07-23T23:05:00;16.80;;;13.30;;
22774;SDS011;11554;51.106;3.684;2022-07-23T23:10:00;16.80;;;13.30;;
22774;SDS011;11554;51.106;3.684;2022-07-23T23:15:00;18.20;;;13.10;;
22774;SDS011;11554;51.106;3.684;2022-07-23T23:20:00;18.20;;;13.10;;
22774;SDS011;11554;51.106;3.684;2022-07-23T23:25:00;18.00;;;13.60;;
22774;SDS011;11554;51.106;3.684;2022-07-23T23:30:00;18.00;;;13.60;;
22774;SDS011;11554;51.106;3.684;2022-07-23T23:35:01;21.10;;;15.20;;
22774;SDS011;11554;51.106;3.684;2022-07-23T23:40:00;21.10;;;15.20;;
22774;SDS011;11554;51.106;3.684;2022-07-23T23:45:00;22.30;;;16.30;;
22774;SDS011;11554;51.106;3.684;2022-07-23T23:50:00;22.30;;;16.30;;
22774;SDS011;11554;51.106;3.684;2022-07-23T23:55:00;22.00;;;16.80;;
